sensor_id;sensor_type;location;lat;lon;timestamp;pressure;altitude;pressure_sealevel;temperature
24278;BMP280;12394;42.692;23.314;2023-10-13T00:00:29;95517.09;;;13.30
24278;BMP280;12394;42.692;23.314;2023-10-13T00:02:58;95507.31;;;13.31
24278;BMP280;12394;42.692;23.314;2023-10-13T00:05:30;95492.72;;;13.26
24278;BMP280;12394;42.692;23.314;2023-10-13T00:07:59;95512.56;;;13.34
24278;BMP280;12394;42.692;23.314;2023-10-13T00:10:29;95508.47;;;13.26
24278;BMP280;12394;42.692;23.314;2023-10-13T00:12:55;95505.13;;;13.22
24278;BMP280;12394;42.692;23.314;2023-10-13T00:15:31;95499.16;;;13.18
24278;BMP280;12394;42.692;23.314;2023-10-13T00:18:05;95498.81;;;13.16
24278;BMP280;12394;42.692;23.314;2023-10-13T00:20:41;95505.25;;;13.12
24278;BMP280;12394;42.692;23.314;2023-10-13T00:23:13;95485.06;;;12.98
24278;BMP280;12394;42.692;23.314;2023-10-13T00:25:38;95500.75;;;13.12
24278;BMP280;12394;42.692;23.314;2023-10-13T00:28:16;95491.34;;;13.11
24278;BMP280;12394;42.692;23.314;2023-10-13T00:30:50;95497.34;;;13.08
24278;BMP280;12394;42.692;23.314;2023-10-13T00:33:18;95505.22;;;13.08
24278;BMP280;12394;42.692;23.314;2023-10-13T00:35:49;95504.88;;;13.06
24278;BMP280;12394;42.692;23.314;2023-10-13T00:38:17;95510.53;;;13.01
24278;BMP280;12394;42.692;23.314;2023-10-13T00:40:45;95505.31;;;12.98
24278;BMP280;12394;42.692;23.314;2023-10-13T00:43:23;95509.09;;;12.93
24278;BMP280;12394;42.692;23.314;2023-10-13T00:45:54;95516.97;;;12.93
24278;BMP280;12394;42.692;23.314;2023-10-13T00:48:32;95508.41;;;12.85
24278;BMP280;12394;42.692;23.314;2023-10-13T00:51:07;95509.88;;;12.86
24278;BMP280;12394;42.692;23.314;2023-10-13T00:53:34;95496.78;;;12.83
24278;BMP280;12394;42.692;23.314;2023-10-13T00:56:08;95506.91;;;12.84
24278;BMP280;12394;42.692;23.314;2023-10-13T00:58:44;95503.53;;;12.84
24278;BMP280;12394;42.692;23.314;2023-10-13T01:01:12;95510.63;;;12.87
24278;BMP280;12394;42.692;23.314;2023-10-13T01:03:51;95509.91;;;12.83
24278;BMP280;12394;42.692;23.314;2023-10-13T01:06:34;95507.31;;;12.79
24278;BMP280;12394;42.692;23.314;2023-10-13T01:09:02;95513.31;;;12.80
24278;BMP280;12394;42.692;23.314;2023-10-13T01:11:39;95511.06;;;12.78
24278;BMP280;12394;42.692;23.314;2023-10-13T01:14:05;95512.22;;;12.74
24278;BMP280;12394;42.692;23.314;2023-10-13T01:16:31;95518.25;;;12.71
24278;BMP280;12394;42.692;23.314;2023-10-13T01:18:57;95509.25;;;12.68
24278;BMP280;12394;42.692;23.314;2023-10-13T01:21:26;95510.00;;;12.69
24278;BMP280;12394;42.692;23.314;2023-10-13T01:23:55;95519.00;;;12.68
24278;BMP280;12394;42.692;23.314;2023-10-13T01:26:20;95511.56;;;12.63
24278;BMP280;12394;42.692;23.314;2023-10-13T01:28:57;95515.31;;;12.62
24278;BMP280;12394;42.692;23.314;2023-10-13T01:31:22;95502.63;;;12.46
24278;BMP280;12394;42.692;23.314;2023-10-13T01:33:56;95517.63;;;12.53
24278;BMP280;12394;42.692;23.314;2023-10-13T01:36:27;95519.88;;;12.51
24278;BMP280;12394;42.692;23.314;2023-10-13T01:38:53;95520.66;;;12.40
24278;BMP280;12394;42.692;23.314;2023-10-13T01:41:20;95527.78;;;12.43
24278;BMP280;12394;42.692;23.314;2023-10-13T01:43:46;95516.19;;;12.37
24278;BMP280;12394;42.692;23.314;2023-10-13T01:46:13;95531.88;;;12.48
24278;BMP280;12394;42.692;23.314;2023-10-13T01:48:40;95518.03;;;12.40
24278;BMP280;12394;42.692;23.314;2023-10-13T01:51:06;95513.94;;;12.39
24278;BMP280;12394;42.692;23.314;2023-10-13T01:53:36;95532.63;;;12.45
24278;BMP280;12394;42.692;23.314;2023-10-13T01:56:02;95516.53;;;12.43
24278;BMP280;12394;42.692;23.314;2023-10-13T01:58:31;95516.94;;;12.38
24278;BMP280;12394;42.692;23.314;2023-10-13T02:00:56;95513.59;;;12.34
24278;BMP280;12394;42.692;23.314;2023-10-13T02:03:22;95521.41;;;12.41
24278;BMP280;12394;42.692;23.314;2023-10-13T02:05:48;95517.69;;;12.38
24278;BMP280;12394;42.692;23.314;2023-10-13T02:08:22;95518.41;;;12.42
24278;BMP280;12394;42.692;23.314;2023-10-13T02:10:51;95515.41;;;12.44
24278;BMP280;12394;42.692;23.314;2023-10-13T02:13:17;95513.16;;;12.42
24278;BMP280;12394;42.692;23.314;2023-10-13T02:15:47;95496.72;;;12.31
24278;BMP280;12394;42.692;23.314;2023-10-13T02:18:18;95507.22;;;12.35
24278;BMP280;12394;42.692;23.314;2023-10-13T02:20:55;95510.59;;;12.35
24278;BMP280;12394;42.692;23.314;2023-10-13T02:23:23;95501.63;;;12.26
24278;BMP280;12394;42.692;23.314;2023-10-13T02:25:54;95505.41;;;12.21
24278;BMP280;12394;42.692;23.314;2023-10-13T02:28:28;95509.91;;;12.21
24278;BMP280;12394;42.692;23.314;2023-10-13T02:30:56;95512.91;;;12.19
24278;BMP280;12394;42.692;23.314;2023-10-13T02:33:23;95511.78;;;12.20
24278;BMP280;12394;42.692;23.314;2023-10-13T02:35:59;95511.03;;;12.20
24278;BMP280;12394;42.692;23.314;2023-10-13T02:38:25;95508.78;;;12.18
24278;BMP280;12394;42.692;23.314;2023-10-13T02:41:12;95500.56;;;12.09
24278;BMP280;12394;42.692;23.314;2023-10-13T02:43:50;95515.16;;;12.14
24278;BMP280;12394;42.692;23.314;2023-10-13T02:46:16;95515.56;;;12.12
24278;BMP280;12394;42.692;23.314;2023-10-13T02:48:41;95524.53;;;12.15
24278;BMP280;12394;42.692;23.314;2023-10-13T02:51:08;95527.91;;;12.15
24278;BMP280;12394;42.692;23.314;2023-10-13T02:53:46;95526.06;;;12.12
24278;BMP280;12394;42.692;23.314;2023-10-13T02:56:15;95527.53;;;12.10
24278;BMP280;12394;42.692;23.314;2023-10-13T02:58:47;95520.09;;;12.01
24278;BMP280;12394;42.692;23.314;2023-10-13T03:01:19;95532.09;;;11.98
24278;BMP280;12394;42.692;23.314;2023-10-13T03:03:49;95530.56;;;12.01
24278;BMP280;12394;42.692;23.314;2023-10-13T03:06:20;95528.34;;;12.03
24278;BMP280;12394;42.692;23.314;2023-10-13T03:08:59;95524.63;;;11.90
24278;BMP280;12394;42.692;23.314;2023-10-13T03:11:39;95532.84;;;11.92
24278;BMP280;12394;42.692;23.314;2023-10-13T03:14:08;95535.84;;;11.97
24278;BMP280;12394;42.692;23.314;2023-10-13T03:16:33;95539.56;;;11.96
24278;BMP280;12394;42.692;23.314;2023-10-13T03:19:00;95538.09;;;11.88
24278;BMP280;12394;42.692;23.314;2023-10-13T03:21:25;95533.25;;;11.83
24278;BMP280;12394;42.692;23.314;2023-10-13T03:23:58;95535.88;;;11.83
24278;BMP280;12394;42.692;23.314;2023-10-13T03:26:33;95531.00;;;11.82
24278;BMP280;12394;42.692;23.314;2023-10-13T03:29:03;95537.00;;;11.79
24278;BMP280;12394;42.692;23.314;2023-10-13T03:31:32;95535.16;;;11.76
24278;BMP280;12394;42.692;23.314;2023-10-13T03:34:03;95535.50;;;11.78
24278;BMP280;12394;42.692;23.314;2023-10-13T03:36:29;95538.13;;;11.78
24278;BMP280;12394;42.692;23.314;2023-10-13T03:39:13;95531.00;;;11.89
24278;BMP280;12394;42.692;23.314;2023-10-13T03:41:39;95519.78;;;11.71
24278;BMP280;12394;42.692;23.314;2023-10-13T03:44:05;95519.41;;;11.72
24278;BMP280;12394;42.692;23.314;2023-10-13T03:46:38;95522.38;;;11.88
24278;BMP280;12394;42.692;23.314;2023-10-13T03:49:07;95504.44;;;11.76
24278;BMP280;12394;42.692;23.314;2023-10-13T03:51:39;95508.53;;;11.70
24278;BMP280;12394;42.692;23.314;2023-10-13T03:54:04;95505.94;;;11.56
24278;BMP280;12394;42.692;23.314;2023-10-13T03:56:32;95508.16;;;11.65
24278;BMP280;12394;42.692;23.314;2023-10-13T03:59:05;95504.09;;;11.56
24278;BMP280;12394;42.692;23.314;2023-10-13T04:01:35;95499.97;;;11.63
24278;BMP280;12394;42.692;23.314;2023-10-13T04:04:20;95505.22;;;11.52
24278;BMP280;12394;42.692;23.314;2023-10-13T04:07:04;95508.56;;;11.45
24278;BMP280;12394;42.692;23.314;2023-10-13T04:09:32;95504.47;;;11.41
24278;BMP280;12394;42.692;23.314;2023-10-13T04:12:18;95497.34;;;11.41
24278;BMP280;12394;42.692;23.314;2023-10-13T04:14:51;95500.38;;;11.43
24278;BMP280;12394;42.692;23.314;2023-10-13T04:17:23;95494.00;;;11.37
24278;BMP280;12394;42.692;23.314;2023-10-13T04:19:52;95512.34;;;11.44
24278;BMP280;12394;42.692;23.314;2023-10-13T04:22:33;95507.09;;;11.48
24278;BMP280;12394;42.692;23.314;2023-10-13T04:25:27;95486.88;;;11.38
24278;BMP280;12394;42.692;23.314;2023-10-13T04:28:08;95516.06;;;11.57
24278;BMP280;12394;42.692;23.314;2023-10-13T04:30:49;95522.03;;;11.54
24278;BMP280;12394;42.692;23.314;2023-10-13T04:33:25;95524.66;;;11.51
24278;BMP280;12394;42.692;23.314;2023-10-13T04:36:13;95523.16;;;11.50
24278;BMP280;12394;42.692;23.314;2023-10-13T04:38:45;95526.19;;;11.48
24278;BMP280;12394;42.692;23.314;2023-10-13T04:41:39;95529.16;;;11.50
24278;BMP280;12394;42.692;23.314;2023-10-13T04:44:10;95490.25;;;11.28
24278;BMP280;12394;42.692;23.314;2023-10-13T04:46:55;95537.41;;;11.49
24278;BMP280;12394;42.692;23.314;2023-10-13T04:49:24;95535.53;;;11.53
24278;BMP280;12394;42.692;23.314;2023-10-13T04:52:08;95540.00;;;11.59
24278;BMP280;12394;42.692;23.314;2023-10-13T04:54:36;95527.66;;;11.56
24278;BMP280;12394;42.692;23.314;2023-10-13T04:57:24;95547.09;;;11.70
24278;BMP280;12394;42.692;23.314;2023-10-13T05:00:04;95552.00;;;11.75
24278;BMP280;12394;42.692;23.314;2023-10-13T05:02:37;95556.13;;;11.76
24278;BMP280;12394;42.692;23.314;2023-10-13T05:05:13;95553.84;;;11.78
24278;BMP280;12394;42.692;23.314;2023-10-13T05:07:40;95559.09;;;11.78
24278;BMP280;12394;42.692;23.314;2023-10-13T05:10:24;95564.72;;;11.80
24278;BMP280;12394;42.692;23.314;2023-10-13T05:13:08;95565.81;;;11.82
24278;BMP280;12394;42.692;23.314;2023-10-13T05:15:52;95567.34;;;11.83
24278;BMP280;12394;42.692;23.314;2023-10-13T05:18:36;95578.94;;;11.93
24278;BMP280;12394;42.692;23.314;2023-10-13T05:21:21;95581.53;;;11.96
24278;BMP280;12394;42.692;23.314;2023-10-13T05:24:05;95568.44;;;11.89
24278;BMP280;12394;42.692;23.314;2023-10-13T05:26:51;95585.28;;;11.99
24278;BMP280;12394;42.692;23.314;2023-10-13T05:29:39;95581.13;;;12.09
24278;BMP280;12394;42.692;23.314;2023-10-13T05:32:23;95577.00;;;12.04
24278;BMP280;12394;42.692;23.314;2023-10-13T05:35:07;95565.34;;;12.19
24278;BMP280;12394;42.692;23.314;2023-10-13T05:37:51;95582.19;;;12.29
24278;BMP280;12394;42.692;23.314;2023-10-13T05:40:35;95592.97;;;12.52
24278;BMP280;12394;42.692;23.314;2023-10-13T05:43:19;95599.72;;;12.53
24278;BMP280;12394;42.692;23.314;2023-10-13T05:46:04;95600.41;;;12.71
24278;BMP280;12394;42.692;23.314;2023-10-13T05:48:48;95601.44;;;12.84
24278;BMP280;12394;42.692;23.314;2023-10-13T05:51:30;95592.34;;;13.00
24278;BMP280;12394;42.692;23.314;2023-10-13T05:54:09;95599.78;;;13.15
24278;BMP280;12394;42.692;23.314;2023-10-13T05:56:48;95595.94;;;13.30
24278;BMP280;12394;42.692;23.314;2023-10-13T05:59:34;95601.81;;;13.49
24278;BMP280;12394;42.692;23.314;2023-10-13T06:02:19;95606.94;;;13.63
24278;BMP280;12394;42.692;23.314;2023-10-13T06:05:05;95585.56;;;13.61
24278;BMP280;12394;42.692;23.314;2023-10-13T06:07:49;95612.72;;;13.88
24278;BMP280;12394;42.692;23.314;2023-10-13T06:10:34;95606.91;;;14.07
24278;BMP280;12394;42.692;23.314;2023-10-13T06:13:18;95600.06;;;14.13
24278;BMP280;12394;42.692;23.314;2023-10-13T06:16:10;95606.50;;;14.46
24278;BMP280;12394;42.692;23.314;2023-10-13T06:18:54;95612.44;;;14.84
24278;BMP280;12394;42.692;23.314;2023-10-13T06:21:38;95613.53;;;15.13
24278;BMP280;12394;42.692;23.314;2023-10-13T06:24:22;95618.69;;;15.51
24278;BMP280;12394;42.692;23.314;2023-10-13T06:27:07;95604.22;;;15.82
24278;BMP280;12394;42.692;23.314;2023-10-13T06:29:51;95609.69;;;16.54
24278;BMP280;12394;42.692;23.314;2023-10-13T06:32:19;95641.34;;;17.13
24278;BMP280;12394;42.692;23.314;2023-10-13T06:34:45;95629.94;;;17.85
24278;BMP280;12394;42.692;23.314;2023-10-13T06:37:14;95628.47;;;18.41
24278;BMP280;12394;42.692;23.314;2023-10-13T06:39:55;95625.97;;;18.92
24278;BMP280;12394;42.692;23.314;2023-10-13T06:42:39;95631.72;;;19.66
24278;BMP280;12394;42.692;23.314;2023-10-13T06:45:08;95630.81;;;20.51
24278;BMP280;12394;42.692;23.314;2023-10-13T06:47:35;95621.22;;;21.37
24278;BMP280;12394;42.692;23.314;2023-10-13T06:50:06;95637.53;;;22.24
24278;BMP280;12394;42.692;23.314;2023-10-13T06:52:40;95636.47;;;22.76
24278;BMP280;12394;42.692;23.314;2023-10-13T06:55:07;95634.06;;;23.38
24278;BMP280;12394;42.692;23.314;2023-10-13T06:57:35;95635.03;;;24.07
24278;BMP280;12394;42.692;23.314;2023-10-13T07:00:01;95619.06;;;24.36
24278;BMP280;12394;42.692;23.314;2023-10-13T07:02:33;95603.78;;;25.10
24278;BMP280;12394;42.692;23.314;2023-10-13T07:04:59;95594.91;;;25.04
24278;BMP280;12394;42.692;23.314;2023-10-13T07:07:39;95603.16;;;25.35
24278;BMP280;12394;42.692;23.314;2023-10-13T07:10:12;95599.75;;;25.90
24278;BMP280;12394;42.692;23.314;2023-10-13T07:12:40;95605.19;;;26.62
24278;BMP280;12394;42.692;23.314;2023-10-13T07:15:09;95594.81;;;27.43
24278;BMP280;12394;42.692;23.314;2023-10-13T07:17:45;95606.41;;;28.14
24278;BMP280;12394;42.692;23.314;2023-10-13T07:20:11;95621.09;;;28.18
24278;BMP280;12394;42.692;23.314;2023-10-13T07:22:39;95623.00;;;28.07
24278;BMP280;12394;42.692;23.314;2023-10-13T07:25:05;95618.81;;;28.93
24278;BMP280;12394;42.692;23.314;2023-10-13T07:27:34;95612.91;;;29.28
24278;BMP280;12394;42.692;23.314;2023-10-13T07:30:00;95608.19;;;29.67
24278;BMP280;12394;42.692;23.314;2023-10-13T07:32:38;95609.59;;;29.90
24278;BMP280;12394;42.692;23.314;2023-10-13T07:35:14;95616.47;;;29.91
24278;BMP280;12394;42.692;23.314;2023-10-13T07:37:43;95596.00;;;30.59
24278;BMP280;12394;42.692;23.314;2023-10-13T07:40:10;95599.69;;;30.91
24278;BMP280;12394;42.692;23.314;2023-10-13T07:42:57;95602.63;;;31.23
24278;BMP280;12394;42.692;23.314;2023-10-13T07:45:43;95587.34;;;31.56
24278;BMP280;12394;42.692;23.314;2023-10-13T07:48:10;95600.91;;;31.50
24278;BMP280;12394;42.692;23.314;2023-10-13T07:50:47;95597.41;;;31.31
24278;BMP280;12394;42.692;23.314;2023-10-13T07:53:14;95597.41;;;31.31
24278;BMP280;12394;42.692;23.314;2023-10-13T07:55:48;95597.75;;;31.46
24278;BMP280;12394;42.692;23.314;2023-10-13T07:58:23;95601.72;;;31.69
24278;BMP280;12394;42.692;23.314;2023-10-13T08:00:51;95598.56;;;31.65
24278;BMP280;12394;42.692;23.314;2023-10-13T08:03:35;95595.09;;;32.27
24278;BMP280;12394;42.692;23.314;2023-10-13T08:06:15;95582.34;;;32.91
24278;BMP280;12394;42.692;23.314;2023-10-13T08:08:41;95583.81;;;32.92
24278;BMP280;12394;42.692;23.314;2023-10-13T08:13:41;95585.69;;;33.29
24278;BMP280;12394;42.692;23.314;2023-10-13T08:16:14;95587.34;;;34.45
24278;BMP280;12394;42.692;23.314;2023-10-13T08:18:51;95590.91;;;34.94
24278;BMP280;12394;42.692;23.314;2023-10-13T08:21:18;95584.53;;;34.71
24278;BMP280;12394;42.692;23.314;2023-10-13T08:23:51;95589.91;;;34.16
24278;BMP280;12394;42.692;23.314;2023-10-13T08:26:24;95607.50;;;33.49
24278;BMP280;12394;42.692;23.314;2023-10-13T08:29:05;95601.06;;;32.76
24278;BMP280;12394;42.692;23.314;2023-10-13T08:31:56;95605.66;;;32.11
24278;BMP280;12394;42.692;23.314;2023-10-13T08:34:48;95597.97;;;32.15
24278;BMP280;12394;42.692;23.314;2023-10-13T08:37:13;95584.69;;;33.13
24278;BMP280;12394;42.692;23.314;2023-10-13T08:39:58;95573.75;;;34.78
24278;BMP280;12394;42.692;23.314;2023-10-13T08:42:31;95593.88;;;35.81
24278;BMP280;12394;42.692;23.314;2023-10-13T08:45:18;95585.75;;;36.25
24278;BMP280;12394;42.692;23.314;2023-10-13T08:47:59;95581.03;;;36.33
24278;BMP280;12394;42.692;23.314;2023-10-13T08:50:47;95585.19;;;34.30
24278;BMP280;12394;42.692;23.314;2023-10-13T08:53:20;95581.19;;;33.31
24278;BMP280;12394;42.692;23.314;2023-10-13T08:55:54;95584.22;;;34.07
24278;BMP280;12394;42.692;23.314;2023-10-13T08:58:26;95586.69;;;35.63
24278;BMP280;12394;42.692;23.314;2023-10-13T09:01:12;95574.03;;;36.75
24278;BMP280;12394;42.692;23.314;2023-10-13T09:03:40;95576.91;;;36.62
24278;BMP280;12394;42.692;23.314;2023-10-13T09:06:13;95567.88;;;37.20
24278;BMP280;12394;42.692;23.314;2023-10-13T09:08:40;95565.81;;;37.59
24278;BMP280;12394;42.692;23.314;2023-10-13T09:11:25;95572.94;;;38.42
24278;BMP280;12394;42.692;23.314;2023-10-13T09:13:51;95560.47;;;39.47
24278;BMP280;12394;42.692;23.314;2023-10-13T09:16:17;95569.09;;;40.49
24278;BMP280;12394;42.692;23.314;2023-10-13T09:19:02;95563.44;;;40.64
24278;BMP280;12394;42.692;23.314;2023-10-13T09:21:41;95556.44;;;40.27
24278;BMP280;12394;42.692;23.314;2023-10-13T09:24:13;95564.78;;;38.02
24278;BMP280;12394;42.692;23.314;2023-10-13T09:26:43;95563.47;;;38.03
24278;BMP280;12394;42.692;23.314;2023-10-13T09:29:16;95546.53;;;37.97
24278;BMP280;12394;42.692;23.314;2023-10-13T09:31:47;95548.34;;;37.54
24278;BMP280;12394;42.692;23.314;2023-10-13T09:34:23;95543.25;;;38.06
24278;BMP280;12394;42.692;23.314;2023-10-13T09:36:49;95541.09;;;37.97
24278;BMP280;12394;42.692;23.314;2023-10-13T09:39:23;95535.47;;;36.94
24278;BMP280;12394;42.692;23.314;2023-10-13T09:41:56;95532.34;;;37.43
24278;BMP280;12394;42.692;23.314;2023-10-13T09:44:23;95514.28;;;37.95
24278;BMP280;12394;42.692;23.314;2023-10-13T09:46:48;95525.81;;;37.86
24278;BMP280;12394;42.692;23.314;2023-10-13T09:49:19;95526.03;;;36.65
24278;BMP280;12394;42.692;23.314;2023-10-13T09:52:01;95520.06;;;36.00
24278;BMP280;12394;42.692;23.314;2023-10-13T09:54:36;95524.22;;;35.57
24278;BMP280;12394;42.692;23.314;2023-10-13T09:57:17;95520.31;;;35.74
24278;BMP280;12394;42.692;23.314;2023-10-13T10:00:04;95506.75;;;37.16
24278;BMP280;12394;42.692;23.314;2023-10-13T10:02:34;95512.16;;;38.76
24278;BMP280;12394;42.692;23.314;2023-10-13T10:05:00;95517.44;;;39.75
24278;BMP280;12394;42.692;23.314;2023-10-13T10:07:54;95511.06;;;40.53
24278;BMP280;12394;42.692;23.314;2023-10-13T10:10:22;95500.44;;;41.32
24278;BMP280;12394;42.692;23.314;2023-10-13T10:13:08;95505.69;;;40.81
24278;BMP280;12394;42.692;23.314;2023-10-13T10:15:43;95497.88;;;40.68
24278;BMP280;12394;42.692;23.314;2023-10-13T10:18:22;95502.16;;;41.27
24278;BMP280;12394;42.692;23.314;2023-10-13T10:20:50;95497.56;;;42.37
24278;BMP280;12394;42.692;23.314;2023-10-13T10:25:49;95481.59;;;41.95
24278;BMP280;12394;42.692;23.314;2023-10-13T10:28:17;95475.22;;;42.43
24278;BMP280;12394;42.692;23.314;2023-10-13T10:30:43;95480.75;;;42.95
24278;BMP280;12394;42.692;23.314;2023-10-13T10:33:10;95485.00;;;43.50
24278;BMP280;12394;42.692;23.314;2023-10-13T10:35:45;95478.03;;;42.24
24278;BMP280;12394;42.692;23.314;2023-10-13T10:38:18;95471.03;;;40.96
24278;BMP280;12394;42.692;23.314;2023-10-13T10:40:51;95462.94;;;40.78
24278;BMP280;12394;42.692;23.314;2023-10-13T10:43:22;95466.53;;;40.35
24278;BMP280;12394;42.692;23.314;2023-10-13T10:45:51;95470.28;;;39.76
24278;BMP280;12394;42.692;23.314;2023-10-13T10:48:17;95463.34;;;38.47
24278;BMP280;12394;42.692;23.314;2023-10-13T10:50:54;95464.91;;;36.83
24278;BMP280;12394;42.692;23.314;2023-10-13T10:53:24;95447.81;;;36.37
24278;BMP280;12394;42.692;23.314;2023-10-13T10:56:09;95465.53;;;35.85
24278;BMP280;12394;42.692;23.314;2023-10-13T10:58:48;95459.34;;;35.77
24278;BMP280;12394;42.692;23.314;2023-10-13T11:01:23;95465.41;;;34.90
24278;BMP280;12394;42.692;23.314;2023-10-13T11:06:27;95443.06;;;33.80
24278;BMP280;12394;42.692;23.314;2023-10-13T11:09:05;95439.44;;;33.65
24278;BMP280;12394;42.692;23.314;2023-10-13T11:11:56;95439.91;;;33.42
24278;BMP280;12394;42.692;23.314;2023-10-13T11:14:29;95440.47;;;33.15
24278;BMP280;12394;42.692;23.314;2023-10-13T11:16:59;95428.13;;;32.87
24278;BMP280;12394;42.692;23.314;2023-10-13T11:19:37;95434.72;;;33.18
24278;BMP280;12394;42.692;23.314;2023-10-13T11:22:18;95415.31;;;33.01
24278;BMP280;12394;42.692;23.314;2023-10-13T11:25:07;95414.41;;;32.40
24278;BMP280;12394;42.692;23.314;2023-10-13T11:27:37;95428.53;;;32.20
24278;BMP280;12394;42.692;23.314;2023-10-13T11:30:11;95384.81;;;31.65
24278;BMP280;12394;42.692;23.314;2023-10-13T11:32:41;95422.75;;;31.78
24278;BMP280;12394;42.692;23.314;2023-10-13T11:35:10;95417.91;;;31.34
24278;BMP280;12394;42.692;23.314;2023-10-13T11:37:54;95406.72;;;31.24
24278;BMP280;12394;42.692;23.314;2023-10-13T11:40:37;95411.13;;;31.03
24278;BMP280;12394;42.692;23.314;2023-10-13T11:43:12;95412.09;;;30.81
24278;BMP280;12394;42.692;23.314;2023-10-13T11:45:48;95411.44;;;30.94
24278;BMP280;12394;42.692;23.314;2023-10-13T11:48:42;95405.69;;;30.84
24278;BMP280;12394;42.692;23.314;2023-10-13T11:51:10;95403.72;;;30.61
24278;BMP280;12394;42.692;23.314;2023-10-13T11:53:43;95403.25;;;30.27
24278;BMP280;12394;42.692;23.314;2023-10-13T11:56:09;95395.06;;;30.08
24278;BMP280;12394;42.692;23.314;2023-10-13T11:58:40;95407.66;;;30.30
24278;BMP280;12394;42.692;23.314;2023-10-13T12:01:06;95397.91;;;30.21
24278;BMP280;12394;42.692;23.314;2023-10-13T12:03:45;95394.81;;;30.12
24278;BMP280;12394;42.692;23.314;2023-10-13T12:06:40;95386.94;;;29.78
24278;BMP280;12394;42.692;23.314;2023-10-13T12:09:07;95383.75;;;29.80
24278;BMP280;12394;42.692;23.314;2023-10-13T12:11:49;95385.28;;;29.70
24278;BMP280;12394;42.692;23.314;2023-10-13T12:14:19;95382.34;;;29.68
24278;BMP280;12394;42.692;23.314;2023-10-13T12:16:47;95383.47;;;29.42
24278;BMP280;12394;42.692;23.314;2023-10-13T12:19:20;95381.34;;;29.30
24278;BMP280;12394;42.692;23.314;2023-10-13T12:21:53;95374.75;;;29.20
24278;BMP280;12394;42.692;23.314;2023-10-13T12:24:23;95384.81;;;29.13
24278;BMP280;12394;42.692;23.314;2023-10-13T12:27:01;95372.88;;;28.98
24278;BMP280;12394;42.692;23.314;2023-10-13T12:29:26;95375.53;;;29.03
24278;BMP280;12394;42.692;23.314;2023-10-13T12:31:56;95372.09;;;29.08
24278;BMP280;12394;42.692;23.314;2023-10-13T12:34:35;95376.06;;;28.96
24278;BMP280;12394;42.692;23.314;2023-10-13T12:37:20;95369.94;;;28.96
24278;BMP280;12394;42.692;23.314;2023-10-13T12:40:12;95363.41;;;28.69
24278;BMP280;12394;42.692;23.314;2023-10-13T12:42:56;95364.41;;;28.66
24278;BMP280;12394;42.692;23.314;2023-10-13T12:48:24;95368.84;;;28.41
24278;BMP280;12394;42.692;23.314;2023-10-13T12:51:08;95358.81;;;28.42
24278;BMP280;12394;42.692;23.314;2023-10-13T12:53:53;95353.44;;;28.47
24278;BMP280;12394;42.692;23.314;2023-10-13T12:56:20;95359.75;;;28.55
24278;BMP280;12394;42.692;23.314;2023-10-13T12:58:51;95345.34;;;28.42
24278;BMP280;12394;42.692;23.314;2023-10-13T13:01:29;95352.69;;;28.36
24278;BMP280;12394;42.692;23.314;2023-10-13T13:04:02;95360.28;;;28.37
24278;BMP280;12394;42.692;23.314;2023-10-13T13:06:29;95355.16;;;28.34
24278;BMP280;12394;42.692;23.314;2023-10-13T13:08:58;95348.56;;;28.29
24278;BMP280;12394;42.692;23.314;2023-10-13T13:11:24;95345.16;;;28.17
24278;BMP280;12394;42.692;23.314;2023-10-13T13:13:51;95350.53;;;28.17
24278;BMP280;12394;42.692;23.314;2023-10-13T13:16:18;95345.38;;;28.08
24278;BMP280;12394;42.692;23.314;2023-10-13T13:18:47;95333.66;;;28.00
24278;BMP280;12394;42.692;23.314;2023-10-13T13:21:12;95348.56;;;28.12
24278;BMP280;12394;42.692;23.314;2023-10-13T13:23:45;95351.75;;;28.05
24278;BMP280;12394;42.692;23.314;2023-10-13T13:26:11;95350.03;;;27.97
24278;BMP280;12394;42.692;23.314;2023-10-13T13:28:46;95340.00;;;27.86
24278;BMP280;12394;42.692;23.314;2023-10-13T13:31:15;95331.94;;;27.86
24278;BMP280;12394;42.692;23.314;2023-10-13T13:33:41;95345.13;;;27.95
24278;BMP280;12394;42.692;23.314;2023-10-13T13:36:09;95340.97;;;27.94
24278;BMP280;12394;42.692;23.314;2023-10-13T13:38:44;95348.56;;;27.90
24278;BMP280;12394;42.692;23.314;2023-10-13T13:41:16;95350.06;;;27.80
24278;BMP280;12394;42.692;23.314;2023-10-13T13:43:46;95343.94;;;27.74
24278;BMP280;12394;42.692;23.314;2023-10-13T13:46:21;95330.72;;;27.76
24278;BMP280;12394;42.692;23.314;2023-10-13T13:48:51;95346.84;;;27.81
24278;BMP280;12394;42.692;23.314;2023-10-13T13:51:23;95340.50;;;27.73
24278;BMP280;12394;42.692;23.314;2023-10-13T13:53:53;95350.75;;;27.80
24278;BMP280;12394;42.692;23.314;2023-10-13T13:56:19;95343.69;;;27.61
24278;BMP280;12394;42.692;23.314;2023-10-13T13:58:48;95350.53;;;27.62
24278;BMP280;12394;42.692;23.314;2023-10-13T14:01:15;95340.50;;;27.57
24278;BMP280;12394;42.692;23.314;2023-10-13T14:03:45;95332.91;;;27.50
24278;BMP280;12394;42.692;23.314;2023-10-13T14:08:43;95340.19;;;27.32
24278;BMP280;12394;42.692;23.314;2023-10-13T14:11:10;95347.75;;;27.39
24278;BMP280;12394;42.692;23.314;2023-10-13T14:13:40;95346.25;;;27.27
24278;BMP280;12394;42.692;23.314;2023-10-13T14:16:18;95349.44;;;27.26
24278;BMP280;12394;42.692;23.314;2023-10-13T14:18:49;95335.72;;;27.13
24278;BMP280;12394;42.692;23.314;2023-10-13T14:21:15;95345.97;;;27.09
24278;BMP280;12394;42.692;23.314;2023-10-13T14:26:12;95343.03;;;27.07
24278;BMP280;12394;42.692;23.314;2023-10-13T14:28:38;95348.66;;;27.09
24278;BMP280;12394;42.692;23.314;2023-10-13T14:31:12;95356.75;;;27.14
24278;BMP280;12394;42.692;23.314;2023-10-13T14:33:39;95354.28;;;27.11
24278;BMP280;12394;42.692;23.314;2023-10-13T14:36:04;95353.75;;;26.95
24278;BMP280;12394;42.692;23.314;2023-10-13T14:38:30;95358.38;;;26.95
24278;BMP280;12394;42.692;23.314;2023-10-13T14:40:59;95355.19;;;26.91
24278;BMP280;12394;42.692;23.314;2023-10-13T14:43:24;95354.41;;;26.85
24278;BMP280;12394;42.692;23.314;2023-10-13T14:45:53;95349.00;;;26.74
24278;BMP280;12394;42.692;23.314;2023-10-13T14:48:19;95339.63;;;26.58